TimeMDT,TemperatureF,Dew PointF,Humidity,Sea Level PressureIn,VisibilityMPH,Wind Direction,Wind SpeedMPH,Gust SpeedMPH,PrecipitationIn,Events,Conditions,WindDirDegrees,DateUTC
12:56 AM,25.2,23.0,91,30.22,10.0,East,3.5,-,N/A,,Clear,90,2013-10-16 06:56:00
1:56 AM,25.2,22.1,88,30.21,9.0,West,3.5,-,N/A,,Clear,280,2013-10-16 07:56:00
2:56 AM,24.1,21.0,88,30.21,10.0,East,8.1,-,N/A,,Clear,80,2013-10-16 08:56:00
3:56 AM,24.1,21.0,88,30.19,10.0,SE,3.5,-,N/A,,Clear,130,2013-10-16 09:56:00
4:56 AM,22.1,19.0,88,30.20,9.0,Calm,Calm,-,N/A,,Clear,0,2013-10-16 10:56:00
5:56 AM,24.1,19.0,81,30.18,10.0,Calm,Calm,-,N/A,,Clear,0,2013-10-16 11:56:00
6:56 AM,20.1,17.1,88,30.21,9.0,Calm,Calm,-,N/A,,Clear,0,2013-10-16 12:56:00
7:56 AM,22.1,19.0,88,30.25,8.0,Calm,Calm,-,N/A,,Clear,0,2013-10-16 13:56:00
8:56 AM,30.0,25.2,82,30.23,9.0,Calm,Calm,-,N/A,,Clear,0,2013-10-16 14:56:00
9:56 AM,31.1,26.1,82,30.24,8.0,Calm,Calm,-,N/A,,Clear,0,2013-10-16 15:56:00
10:56 AM,38.8,27.1,63,30.20,8.0,SSW,9.2,-,N/A,,Clear,210,2013-10-16 16:56:00
11:56 AM,41.9,25.2,52,30.17,9.0,South,5.8,-,N/A,,Clear,190,2013-10-16 17:56:00
12:56 PM,41.9,25.2,52,30.17,8.0,West,3.5,-,N/A,,Partly Cloudy,260,2013-10-16 18:56:00
1:56 PM,43.9,26.1,50,30.14,9.0,Variable,4.6,-,N/A,,Scattered Clouds,0,2013-10-16 19:56:00
2:56 PM,45.0,27.1,50,30.13,8.0,Variable,5.8,-,N/A,,Scattered Clouds,0,2013-10-16 20:56:00
3:56 PM,45.9,25.2,44,30.12,8.0,Variable,5.8,-,N/A,,Mostly Cloudy,0,2013-10-16 21:56:00
4:56 PM,43.9,23.0,44,30.14,10.0,SSW,3.5,-,N/A,,Clear,210,2013-10-16 22:56:00
5:56 PM,43.9,23.0,44,30.12,9.0,West,8.1,-,N/A,,Partly Cloudy,260,2013-10-16 23:56:00
6:56 PM,38.8,25.2,58,30.16,9.0,NW,3.5,-,N/A,,Mostly Cloudy,310,2013-10-17 00:56:00
7:56 PM,32.9,27.1,79,30.18,10.0,ENE,6.9,-,N/A,,Overcast,60,2013-10-17 01:56:00
8:56 PM,32.9,27.1,79,30.15,10.0,East,9.2,-,N/A,,Mostly Cloudy,80,2013-10-17 02:56:00
9:56 PM,34.0,26.1,73,30.14,10.0,East,5.8,-,N/A,,Mostly Cloudy,80,2013-10-17 03:56:00
10:56 PM,34.0,26.1,73,30.10,10.0,SE,3.5,-,N/A,,Overcast,130,2013-10-17 04:56:00
11:56 PM,31.1,26.1,82,30.10,9.0,Calm,Calm,-,N/A,,Overcast,0,2013-10-17 05:56:00